Time;durP1;ratioP1;P1;durP2;ratioP2;P2;SDS_P1;SDS_P2;PMS_P1;PMS_P2;Temp;Humidity;BMP_temperature;BMP_pressure;BME280_temperature;BME280_humidity;BME280_pressure;Samples;Min_cycle;Max_cycle;Signal;HPM_P1;HPM_P2
2022/03/09 00:00:17;;;;;;;29.57;27.13;;;;;;;22.45;25.86;94945.66;6092185;28;103139;-55
2022/03/09 00:03:19;;;;;;;28.87;26.43;;;;;;;22.44;25.70;94944.88;6112431;28;103149;-55
2022/03/09 00:06:21;;;;;;;27.47;25.27;;;;;;;22.44;25.79;94947.53;6136062;28;103375;-55
2022/03/09 00:09:23;;;;;;;28.13;25.83;;;;;;;22.45;25.79;94938.47;6136078;28;103171;-55
2022/03/09 00:12:25;;;;;;;27.53;25.33;;;;;;;22.44;25.96;94942.22;6130664;28;103692;-56
2022/03/09 00:15:27;;;;;;;26.10;23.87;;;;;;;22.46;25.72;94937.38;6137164;28;104291;-55
2022/03/09 00:18:29;;;;;;;27.30;25.10;;;;;;;22.45;25.56;94941.13;6135945;28;103410;-55
2022/03/09 00:21:30;;;;;;;25.33;23.33;;;;;;;22.44;25.39;94938.78;6130166;28;103952;-56
2022/03/09 00:24:32;;;;;;;28.00;25.70;;;;;;;22.45;26.01;94941.13;6135450;28;103183;-55
2022/03/09 00:27:34;;;;;;;28.50;26.10;;;;;;;22.44;25.52;94944.88;6135392;28;103266;-56
2022/03/09 00:30:36;;;;;;;28.53;26.23;;;;;;;22.44;25.67;94942.22;6145382;28;103421;-54
2022/03/09 00:33:38;;;;;;;28.13;25.73;;;;;;;22.45;25.34;94943.78;6148232;28;103422;-55
2022/03/09 00:36:40;;;;;;;27.80;25.50;;;;;;;22.44;25.74;94933.44;6135563;28;103087;-56
2022/03/09 00:39:42;;;;;;;29.13;26.73;;;;;;;22.44;25.78;94934.25;6151519;28;103126;-56
2022/03/09 00:42:44;;;;;;;28.70;26.37;;;;;;;22.43;25.81;94932.66;6141747;28;103302;-54
2022/03/09 00:45:46;;;;;;;28.90;26.50;;;;;;;22.44;25.51;94928.13;6139521;28;104893;-54
2022/03/09 00:48:48;;;;;;;26.73;24.57;;;;;;;22.44;25.87;94928.91;6135714;28;103099;-55
2022/03/09 00:51:50;;;;;;;27.70;25.40;;;;;;;22.44;25.63;94923.59;6134689;28;103229;-54
2022/03/09 00:54:52;;;;;;;26.53;24.43;;;;;;;22.41;25.50;94923.41;6130014;28;104272;-55
2022/03/09 00:57:53;;;;;;;26.47;24.30;;;;;;;22.43;25.48;94927.34;6138469;28;103478;-54
2022/03/09 01:00:55;;;;;;;26.20;24.10;;;;;;;22.45;25.47;94919.06;6155613;28;103286;-55
2022/03/09 01:03:57;;;;;;;28.03;25.73;;;;;;;22.45;25.64;94919.84;6152536;28;103422;-54
2022/03/09 01:06:59;;;;;;;30.50;27.90;;;;;;;22.45;25.64;94917.16;6130457;28;103909;-56
2022/03/09 01:10:02;;;;;;;30.63;28.13;;;;;;;22.46;25.47;94913.41;6134283;28;104318;-55
2022/03/09 01:13:04;;;;;;;30.00;27.50;;;;;;;22.45;25.43;94909.19;6135120;28;104058;-55
2022/03/09 01:16:06;;;;;;;30.17;27.60;;;;;;;22.45;25.73;94906.53;6131983;28;103355;-55
2022/03/09 01:19:09;;;;;;;31.20;28.67;;;;;;;22.46;25.54;94904.66;6133433;28;104130;-55
2022/03/09 01:22:11;;;;;;;28.93;26.53;;;;;;;22.45;25.83;94903.88;6116459;28;103153;-55
2022/03/09 01:25:13;;;;;;;29.50;27.10;;;;;;;22.46;25.65;94897.44;6133977;28;104159;-54
2022/03/09 01:28:14;;;;;;;28.40;26.10;;;;;;;22.46;25.38;94897.44;6129154;28;103093;-55
2022/03/09 01:31:16;;;;;;;27.90;25.50;;;;;;;22.45;25.65;94898.53;6133793;28;104296;-55
2022/03/09 01:34:18;;;;;;;27.10;24.97;;;;;;;22.46;25.47;94894.78;6134461;28;103958;-55
2022/03/09 01:37:20;;;;;;;26.97;24.70;;;;;;;22.46;25.79;94896.66;6134576;28;104058;-56
2022/03/09 01:40:21;;;;;;;26.27;24.07;;;;;;;22.45;25.48;94898.53;6128372;28;104085;-56
2022/03/09 01:43:25;;;;;;;26.27;24.07;;;;;;;22.45;25.33;94906.53;6134208;28;103631;-54
2022/03/09 01:46:27;;;;;;;28.37;26.00;;;;;;;22.46;25.51;94897.44;6132827;28;103302;-55
2022/03/09 01:49:29;;;;;;;24.00;22.00;;;;;;;22.47;25.21;94901.69;6111819;28;104082;-54
2022/03/09 01:52:31;;;;;;;25.40;23.40;;;;;;;22.47;25.37;94903.56;6133565;28;103125;-54
2022/03/09 01:55:33;;;;;;;24.07;22.17;;;;;;;22.45;25.35;94903.88;6132739;28;103145;-54
2022/03/09 01:58:34;;;;;;;23.67;21.77;;;;;;;22.48;25.59;94911.22;6133800;28;103204;-56
2022/03/09 02:01:37;;;;;;;23.63;21.77;;;;;;;22.48;25.33;94902.47;6128689;28;104034;-54
2022/03/09 02:04:39;;;;;;;23.37;21.47;;;;;;;22.47;25.53;94901.69;6133731;28;104318;-55
2022/03/09 02:11:01;;;;;;;23.40;21.60;;;;;;;22.47;24.86;94903.56;6129331;28;103554;-55
2022/03/09 02:14:03;;;;;;;23.40;21.50;;;;;;;22.47;25.16;94895.56;6122631;28;103061;-55
2022/03/09 02:17:19;;;;;;;22.13;20.30;;;;;;;22.47;25.42;94901.69;6115252;28;103255;-55
2022/03/09 02:20:21;;;;;;;22.07;20.37;;;;;;;22.45;25.47;94893.22;6109892;28;103199;-56
2022/03/09 02:23:23;;;;;;;22.67;20.87;;;;;;;22.47;25.55;94893.69;6101419;28;103621;-55
2022/03/09 02:26:25;;;;;;;22.60;20.80;;;;;;;22.48;25.37;94894.47;6109492;28;103045;-55
2022/03/09 02:29:27;;;;;;;20.97;19.30;;;;;;;22.46;25.50;94900.09;6111956;28;103093;-55
2022/03/09 02:32:29;;;;;;;19.87;18.37;;;;;;;22.47;25.34;94898.22;6121957;28;103693;-55
2022/03/09 02:35:31;;;;;;;22.30;20.50;;;;;;;22.46;25.31;94894.78;6121517;28;103196;-56
2022/03/09 02:38:32;;;;;;;21.00;19.30;;;;;;;22.46;25.13;94894.00;6118265;28;103106;-56
2022/03/09 02:41:34;;;;;;;20.13;18.53;;;;;;;22.47;25.50;94896.34;6121367;28;103072;-55
2022/03/09 02:44:37;;;;;;;20.43;18.93;;;;;;;22.47;25.39;94899.00;6103996;28;103143;-55
2022/03/09 02:47:41;;;;;;;19.60;18.10;;;;;;;22.48;25.07;94897.13;6108709;28;103089;-55
2022/03/09 02:50:44;;;;;;;19.70;18.17;;;;;;;22.47;25.15;94896.34;6123343;28;104598;-55
2022/03/09 02:53:48;;;;;;;20.00;18.40;;;;;;;22.47;25.31;94896.34;6115324;28;104018;-55
2022/03/09 02:56:50;;;;;;;21.30;19.60;;;;;;;22.48;25.08;94894.47;6105154;28;103846;-55
2022/03/09 02:59:52;;;;;;;25.90;23.80;;;;;;;22.46;25.33;94894.78;6114313;28;102829;-55
2022/03/09 03:02:53;;;;;;;23.70;21.80;;;;;;;22.47;25.28;94896.34;6123362;28;103302;-55
2022/03/09 03:05:55;;;;;;;24.87;22.87;;;;;;;22.47;25.02;94892.91;6130585;28;103165;-55
2022/03/09 03:08:57;;;;;;;25.20;23.23;;;;;;;22.45;25.07;94890.56;6107606;28;103182;-54
2022/03/09 03:11:59;;;;;;;24.30;22.40;;;;;;;22.46;25.21;94892.13;6106087;28;104233;-54
2022/03/09 03:15:03;;;;;;;24.87;22.87;;;;;;;22.46;25.09;94900.09;6117929;28;104668;-55
2022/03/09 03:18:05;;;;;;;24.70;22.70;;;;;;;22.47;24.90;94901.69;6103351;28;104337;-54
2022/03/09 03:21:07;;;;;;;24.23;22.23;;;;;;;22.47;25.29;94895.56;6124596;28;104163;-54
2022/03/09 03:24:09;;;;;;;24.90;22.90;;;;;;;22.46;25.18;94901.97;6098252;28;104499;-54
2022/03/09 03:27:11;;;;;;;23.07;21.27;;;;;;;22.46;25.23;94905.44;6120636;28;103175;-54
2022/03/09 03:30:13;;;;;;;23.47;21.30;;;;;;;22.46;25.23;94902.78;6120066;28;104058;-54
2022/03/09 03:33:15;;;;;;;24.00;22.00;;;;;;;22.45;25.09;94903.88;6112527;28;104263;-55
2022/03/09 03:36:17;;;;;;;23.87;21.93;;;;;;;22.47;25.33;94908.88;6122097;28;103374;-54
2022/03/09 03:39:19;;;;;;;22.47;20.63;;;;;;;22.50;24.98;94905.59;6120300;28;103461;-54
2022/03/09 03:42:21;;;;;;;22.87;20.97;;;;;;;22.54;25.08;94903.94;6117802;28;103053;-54
2022/03/09 03:45:23;;;;;;;22.03;20.23;;;;;;;22.54;24.93;94906.59;6112792;28;103113;-55
2022/03/09 03:48:25;;;;;;;22.70;20.90;;;;;;;22.53;24.67;94905.00;6117382;28;103331;-54
2022/03/09 03:51:30;;;;;;;22.20;20.50;;;;;;;22.52;24.95;94904.22;6112262;28;103120;-54
2022/03/09 03:54:32;;;;;;;21.63;19.90;;;;;;;22.51;24.86;94899.22;6111707;28;103674;-56
2022/03/09 03:57:34;;;;;;;21.20;19.50;;;;;;;22.50;24.79;94910.94;6118485;28;103518;-54
2022/03/09 04:00:36;;;;;;;19.43;17.87;;;;;;;22.49;24.97;94904.81;6123566;28;103505;-55
2022/03/09 04:03:38;;;;;;;19.93;18.37;;;;;;;22.51;24.75;94912.53;6124451;28;103082;-55
2022/03/09 04:06:40;;;;;;;20.17;18.57;;;;;;;22.49;25.15;94915.47;6125021;28;104156;-53
2022/03/09 04:09:42;;;;;;;19.90;18.23;;;;;;;22.46;24.85;94905.44;6132709;28;104255;-55
2022/03/09 04:12:44;;;;;;;20.00;18.40;;;;;;;22.47;24.88;94906.22;6131260;28;103809;-55
2022/03/09 04:15:46;;;;;;;19.00;17.60;;;;;;;22.50;24.45;94911.72;6134919;28;103979;-55
2022/03/09 04:18:48;;;;;;;20.03;18.37;;;;;;;22.51;24.93;94913.31;6125418;28;103102;-54
2022/03/09 04:21:50;;;;;;;19.23;17.60;;;;;;;22.56;24.66;94907.06;6120555;28;102983;-53
2022/03/09 04:24:52;;;;;;;19.37;17.70;;;;;;;22.58;24.63;94906.75;6112650;28;103394;-54
2022/03/09 04:27:53;;;;;;;18.83;17.33;;;;;;;22.59;24.55;94905.66;6128354;28;103913;-53
2022/03/09 04:30:55;;;;;;;17.60;16.30;;;;;;;22.59;24.67;94908.31;6110981;28;102993;-54
2022/03/09 04:33:57;;;;;;;18.83;17.33;;;;;;;22.59;24.88;94913.66;6115253;28;104027;-54
2022/03/09 04:36:59;;;;;;;18.30;16.90;;;;;;;22.59;24.72;94908.31;6116104;28;104244;-55
2022/03/09 04:40:02;;;;;;;18.17;16.60;;;;;;;22.57;24.37;94910.50;6124380;28;103733;-56
2022/03/09 04:43:04;;;;;;;17.93;16.47;;;;;;;22.48;25.05;94913.91;6103854;28;104460;-54
2022/03/09 04:46:06;;;;;;;17.37;15.97;;;;;;;22.47;24.80;94919.53;6106545;28;103497;-54
2022/03/09 04:49:09;;;;;;;21.73;19.80;;;;;;;22.43;25.35;94916.69;6114041;28;103269;-54
2022/03/09 04:52:10;;;;;;;20.23;18.43;;;;;;;22.49;25.45;94918.13;6115762;28;103112;-54
2022/03/09 04:55:12;;;;;;;21.57;19.83;;;;;;;22.59;25.60;94916.31;6132684;28;103294;-55
2022/03/09 04:58:14;;;;;;;21.80;19.90;;;;;;;22.68;25.24;94915.28;6098287;28;104538;-55
2022/03/09 05:01:16;;;;;;;22.87;20.97;;;;;;;22.77;26.13;94916.09;6105509;28;103116;-54
2022/03/09 05:04:18;;;;;;;21.73;19.83;;;;;;;22.79;26.86;94919.22;6107970;28;103866;-53
2022/03/09 05:07:20;;;;;;;22.37;20.50;;;;;;;22.77;25.99;94920.63;6125774;28;103528;-53
2022/03/09 05:10:22;;;;;;;22.67;20.97;;;;;;;22.74;26.24;94916.72;6127246;28;103986;-53
2022/03/09 05:13:23;;;;;;;22.57;20.63;;;;;;;22.76;26.08;94927.06;6131329;28;103688;-53
2022/03/09 05:16:25;;;;;;;21.90;19.70;;;;;;;22.69;26.96;94930.16;6126998;28;104113;-54
2022/03/09 05:19:27;;;;;;;21.03;19.10;;;;;;;22.64;26.80;94938.25;6122873;28;103027;-54
2022/03/09 05:22:29;;;;;;;20.73;18.93;;;;;;;22.45;25.58;94943.00;6138636;28;103207;-53
2022/03/09 05:25:31;;;;;;;20.93;18.90;;;;;;;22.43;25.55;94938.00;6131725;28;103278;-54
2022/03/09 05:28:32;;;;;;;22.43;20.53;;;;;;;22.42;25.35;94941.75;6132011;28;103006;-53
2022/03/09 05:31:34;;;;;;;21.37;19.57;;;;;;;22.41;25.54;94942.84;6129391;28;104048;-55
2022/03/09 05:34:39;;;;;;;21.07;19.37;;;;;;;22.39;25.32;94944.22;6117332;28;104124;-54
2022/03/09 05:37:43;;;;;;;20.17;18.60;;;;;;;22.39;25.60;94947.69;6134107;28;103590;-53
2022/03/09 05:40:44;;;;;;;22.07;20.20;;;;;;;22.38;25.71;94946.09;6128940;28;103910;-53
2022/03/09 05:43:46;;;;;;;22.37;20.37;;;;;;;22.37;25.84;94955.19;6131531;28;103060;-54
2022/03/09 05:46:48;;;;;;;22.73;20.93;;;;;;;22.34;25.98;94944.34;6132761;28;103402;-53
2022/03/09 05:49:50;;;;;;;23.40;21.40;;;;;;;22.36;25.53;94956.28;6114957;28;103112;-54
2022/03/09 05:52:52;;;;;;;23.70;21.60;;;;;;;22.38;25.73;94951.44;6125399;28;103286;-54
2022/03/09 05:55:54;;;;;;;23.00;21.20;;;;;;;22.38;25.80;94956.75;6114239;28;103173;-54
2022/03/09 05:58:55;;;;;;;22.60;20.60;;;;;;;22.34;25.88;94950.47;6133674;28;103216;-54
2022/03/09 06:01:57;;;;;;;22.43;20.70;;;;;;;22.41;25.65;94966.00;6134650;28;103614;-53
2022/03/09 06:04:59;;;;;;;22.57;20.67;;;;;;;22.40;25.80;94964.44;6129351;28;104099;-54
2022/03/09 06:08:01;;;;;;;24.03;22.07;;;;;;;22.41;25.88;94966.78;6133605;28;103198;-53
2022/03/09 06:11:03;;;;;;;23.33;21.43;;;;;;;22.42;25.80;94968.38;6134120;28;103158;-53
2022/03/09 06:14:05;;;;;;;23.70;21.73;;;;;;;22.45;25.40;94970.41;6128724;28;103505;-54
2022/03/09 06:17:07;;;;;;;25.27;23.27;;;;;;;22.49;25.39;94968.72;6134393;28;103343;-54
2022/03/09 06:20:09;;;;;;;27.70;25.30;;;;;;;22.55;25.65;94966.72;6133739;28;103343;-53
2022/03/09 06:23:11;;;;;;;30.47;27.77;;;;;;;22.59;25.41;94969.56;6130800;28;102806;-54
2022/03/09 06:26:13;;;;;;;32.17;29.50;;;;;;;22.63;25.35;94973.97;6103640;28;103977;-54
2022/03/09 06:29:15;;;;;;;36.20;33.07;;;;;;;22.66;25.46;94972.56;6108883;28;103007;-54
2022/03/09 06:32:17;;;;;;;37.03;34.00;;;;;;;22.70;25.47;94979.69;6109397;28;103018;-54
2022/03/09 06:35:19;;;;;;;37.27;34.00;;;;;;;22.76;25.29;94975.00;6108999;28;103442;-54
2022/03/09 06:38:20;;;;;;;36.90;33.80;;;;;;;22.81;25.10;94980.97;6086662;28;103675;-53
2022/03/09 06:41:22;;;;;;;34.70;31.80;;;;;;;22.83;25.21;94977.25;6109415;28;103306;-53
2022/03/09 06:44:24;;;;;;;32.67;29.87;;;;;;;22.90;25.40;94981.06;6109361;28;103519;-54
2022/03/09 06:47:26;;;;;;;28.93;26.63;;;;;;;22.97;25.30;94983.28;6104356;28;104003;-55
2022/03/09 06:50:29;;;;;;;31.27;28.63;;;;;;;23.01;25.73;94987.72;6108869;28;103922;-54
2022/03/09 06:53:31;;;;;;;30.57;27.90;;;;;;;23.05;25.34;94980.69;6109405;28;103099;-54
2022/03/09 06:56:32;;;;;;;31.73;29.13;;;;;;;23.11;25.23;94990.09;6107940;28;103494;-55
2022/03/09 06:59:34;;;;;;;32.27;29.47;;;;;;;23.13;24.94;94989.00;6103449;28;103449;-55
2022/03/09 07:02:37;;;;;;;30.90;28.37;;;;;;;23.15;25.16;94995.59;6109153;28;103055;-54
2022/03/09 07:05:39;;;;;;;31.63;29.03;;;;;;;23.16;25.07;94997.16;6132578;28;104239;-55
2022/03/09 07:08:41;;;;;;;31.87;29.17;;;;;;;23.17;25.04;94995.28;6132720;28;104015;-54
2022/03/09 07:11:44;;;;;;;32.23;29.53;;;;;;;23.13;25.18;94992.44;6136470;28;103028;-54
2022/03/09 07:14:46;;;;;;;30.33;27.83;;;;;;;23.09;24.67;94986.97;6136892;28;103162;-54
2022/03/09 07:17:49;;;;;;;32.10;29.50;;;;;;;23.15;24.93;94994.81;6137585;28;104028;-54
2022/03/09 07:20:50;;;;;;;33.30;30.40;;;;;;;23.19;25.10;94985.91;6130978;28;103231;-54
2022/03/09 07:23:52;;;;;;;32.30;29.50;;;;;;;23.22;24.99;94989.84;6137281;28;106366;-54
2022/03/09 07:26:56;;;;;;;32.23;29.63;;;;;;;23.22;25.02;94984.50;6136504;28;103713;-55
2022/03/09 07:29:58;;;;;;;35.17;32.17;;;;;;;23.14;24.67;94986.03;6136380;28;103107;-53
2022/03/09 07:32:59;;;;;;;33.93;31.03;;;;;;;23.11;24.92;94989.31;6130924;28;104037;-53
2022/03/09 07:36:02;;;;;;;32.13;29.47;;;;;;;23.07;24.89;94994.47;6136961;28;103550;-52
2022/03/09 07:39:04;;;;;;;33.23;30.40;;;;;;;23.06;24.65;94987.56;6136416;28;103203;-55
2022/03/09 07:42:14;;;;;;;30.60;28.10;;;;;;;23.06;25.52;94989.44;6130525;28;103035;-55
2022/03/09 07:45:16;;;;;;;29.27;26.90;;;;;;;23.11;25.44;94989.31;6136547;28;103164;-53
2022/03/09 07:48:18;;;;;;;28.40;26.10;;;;;;;23.13;25.28;94986.34;6119717;28;103190;-53
2022/03/09 07:51:20;;;;;;;27.93;25.57;;;;;;;23.08;25.78;94974.72;6135752;28;103020;-54
2022/03/09 07:54:21;;;;;;;28.67;26.30;;;;;;;23.10;25.39;94980.53;6131409;28;103786;-55
2022/03/09 07:57:23;;;;;;;28.53;26.23;;;;;;;23.21;25.01;94972.28;6135719;28;103672;-54
2022/03/09 08:00:27;;;;;;;26.27;24.10;;;;;;;23.22;25.09;94971.19;6137393;28;106133;-55
2022/03/09 08:03:28;;;;;;;26.63;24.40;;;;;;;23.27;25.45;94966.50;6135515;28;105195;-53
2022/03/09 08:06:37;;;;;;;26.83;24.67;;;;;;;23.42;24.67;94973.28;6133482;28;103135;-52
2022/03/09 08:09:41;;;;;;;26.27;24.23;;;;;;;23.48;25.15;94972.03;6136881;28;104020;-54
2022/03/09 08:12:43;;;;;;;26.80;24.70;;;;;;;23.60;25.02;94971.47;6135830;28;103887;-54
2022/03/09 08:15:44;;;;;;;26.10;23.90;;;;;;;23.60;24.86;94974.16;6129848;28;103019;-54
2022/03/09 08:18:46;;;;;;;25.77;23.70;;;;;;;23.60;25.09;94974.94;6135787;28;103313;-54
2022/03/09 08:21:48;;;;;;;25.00;22.90;;;;;;;23.63;24.97;94979.63;6135615;28;103510;-53
2022/03/09 08:24:50;;;;;;;24.83;22.83;;;;;;;23.65;24.66;94969.44;6136189;28;104149;-54
2022/03/09 08:27:51;;;;;;;27.00;24.87;;;;;;;23.61;24.98;94957.84;6129343;28;103088;-54
2022/03/09 08:30:54;;;;;;;25.27;23.27;;;;;;;23.59;24.51;94969.91;6135160;28;103069;-54
2022/03/09 08:33:56;;;;;;;23.93;22.03;;;;;;;23.49;24.39;94970.94;6135452;28;103126;-53
2022/03/09 08:36:58;;;;;;;25.37;23.27;;;;;;;23.45;24.64;94974.53;6130486;28;103933;-53
2022/03/09 08:40:01;;;;;;;27.73;25.50;;;;;;;23.42;24.57;94973.28;6135711;28;103934;-53
2022/03/09 08:43:02;;;;;;;30.13;27.73;;;;;;;23.42;24.45;94967.94;6135159;28;104218;-53
2022/03/09 08:46:04;;;;;;;28.57;26.17;;;;;;;23.36;24.61;94964.66;6136002;28;103435;-53
2022/03/09 08:49:06;;;;;;;30.03;27.67;;;;;;;23.33;24.84;94964.47;6129520;28;104044;-53
2022/03/09 08:52:10;;;;;;;30.33;27.87;;;;;;;23.29;25.14;94958.97;6134807;28;102785;-53
2022/03/09 08:55:12;;;;;;;32.00;29.30;;;;;;;23.28;25.11;94961.94;6135219;28;103212;-53
2022/03/09 08:58:14;;;;;;;33.33;30.53;;;;;;;23.25;24.98;94957.22;6134813;28;104421;-53
2022/03/09 09:01:16;;;;;;;34.07;31.27;;;;;;;23.27;24.99;94949.72;6129511;28;103312;-53
2022/03/09 09:04:38;;;;;;;33.17;30.50;;;;;;;23.29;24.79;94947.53;6134310;28;105290;-53
2022/03/09 09:07:40;;;;;;;35.53;32.63;;;;;;;23.31;24.68;94950.66;6135455;28;104152;-52
2022/03/09 09:10:42;;;;;;;35.97;33.00;;;;;;;23.35;24.97;94952.41;6130385;28;105030;-54
2022/03/09 09:13:44;;;;;;;36.87;33.87;;;;;;;23.34;24.79;94947.38;6134452;28;103059;-53
2022/03/09 09:16:45;;;;;;;36.07;32.77;;;;;;;23.33;25.29;94943.91;6134451;28;103028;-53
2022/03/09 09:19:48;;;;;;;35.47;32.47;;;;;;;23.35;25.29;94941.75;6134679;28;103192;-53
2022/03/09 09:22:49;;;;;;;36.73;33.40;;;;;;;23.33;24.94;94945.78;6129099;28;104133;-54
2022/03/09 09:26:09;;;;;;;38.23;34.83;;;;;;;23.34;25.29;94942.81;6109703;28;104099;-54
2022/03/09 09:29:31;;;;;;;36.20;33.20;;;;;;;23.34;25.27;94942.03;6109629;28;102833;-53
2022/03/09 09:32:33;;;;;;;38.03;34.43;;;;;;;23.30;25.20;94939.22;6104098;28;103364;-54
2022/03/09 09:35:35;;;;;;;36.40;32.87;;;;;;;23.29;25.25;94942.97;6108255;28;102866;-54
2022/03/09 09:38:38;;;;;;;36.03;32.93;;;;;;;23.30;25.14;94938.44;6110868;28;104049;-53
2022/03/09 09:41:46;;;;;;;36.80;33.63;;;;;;;23.28;24.99;94932.63;6109912;28;103041;-54
2022/03/09 09:44:48;;;;;;;34.57;31.27;;;;;;;23.29;25.49;94926.97;6105434;28;104054;-55
2022/03/09 09:47:51;;;;;;;34.30;31.30;;;;;;;23.46;25.00;94934.22;6109793;28;103044;-54
2022/03/09 09:50:54;;;;;;;34.90;31.90;;;;;;;23.68;24.65;94938.69;6109733;28;103271;-55
2022/03/09 09:53:59;;;;;;;33.63;30.63;;;;;;;23.75;24.66;94938.25;6105478;28;104137;-53
2022/03/09 09:57:02;;;;;;;33.73;30.70;;;;;;;23.84;24.71;94939.81;6109937;28;103191;-54
2022/03/09 10:00:06;;;;;;;32.40;29.60;;;;;;;23.89;24.23;94933.56;6110160;28;104032;-53
2022/03/09 10:03:07;;;;;;;32.37;29.63;;;;;;;23.98;24.59;94935.13;6109646;28;104252;-53
2022/03/09 10:06:09;;;;;;;30.50;27.80;;;;;;;23.98;24.23;94937.00;6103987;28;103238;-53
2022/03/09 10:09:12;;;;;;;29.47;26.93;;;;;;;23.98;24.69;94929.00;6110351;28;105931;-54
2022/03/09 10:12:26;;;;;;;30.50;27.83;;;;;;;23.97;24.14;94930.09;6109630;28;104128;-55
2022/03/09 10:15:32;;;;;;;28.20;26.00;;;;;;;23.98;24.53;94926.31;6108821;28;103558;-54
2022/03/09 10:18:34;;;;;;;28.07;25.80;;;;;;;23.93;24.67;94927.28;6106306;28;103000;-54
2022/03/09 10:21:40;;;;;;;28.33;25.73;;;;;;;23.92;24.72;94915.03;6109566;28;103324;-54
2022/03/09 10:24:42;;;;;;;27.13;24.83;;;;;;;23.91;24.68;94915.34;6123884;28;104019;-54
2022/03/09 10:27:52;;;;;;;28.10;25.70;;;;;;;23.84;24.24;94926.47;6128323;28;103200;-54
2022/03/09 10:30:53;;;;;;;29.03;26.57;;;;;;;23.68;24.98;94920.84;6133226;28;103194;-55
2022/03/09 10:34:11;;;;;;;31.43;28.60;;;;;;;23.51;24.71;94918.09;6132813;28;102988;-55
2022/03/09 10:37:13;;;;;;;32.63;29.93;;;;;;;23.44;24.99;94916.97;6133160;28;103551;-54
2022/03/09 10:40:18;;;;;;;32.33;29.60;;;;;;;23.43;25.06;94916.19;6127485;28;103400;-54
2022/03/09 10:43:25;;;;;;;31.20;28.60;;;;;;;23.52;25.12;94914.34;6133345;28;103440;-54
2022/03/09 10:46:41;;;;;;;32.27;29.60;;;;;;;23.58;24.69;94923.78;6133835;28;104019;-54
2022/03/09 10:49:43;;;;;;;29.90;27.40;;;;;;;23.66;24.71;94914.22;6128540;28;105164;-53
2022/03/09 10:52:52;;;;;;;30.13;27.53;;;;;;;23.67;24.60;94910.44;6133483;28;104031;-54
2022/03/09 10:55:59;;;;;;;29.37;26.77;;;;;;;23.68;24.91;94915.50;6132920;28;103037;-54
2022/03/09 10:59:12;;;;;;;27.67;25.37;;;;;;;23.66;24.91;94907.00;6133497;28;103530;-53
2022/03/09 11:02:22;;;;;;;27.57;25.27;;;;;;;23.65;24.63;94908.09;6126788;28;103253;-53
2022/03/09 11:05:24;;;;;;;28.60;26.30;;;;;;;23.59;24.77;94898.69;6132341;28;103150;-54
2022/03/09 11:08:29;;;;;;;27.77;25.43;;;;;;;23.58;24.49;94885.66;6133699;28;104007;-53
2022/03/09 11:11:31;;;;;;;28.23;25.80;;;;;;;23.62;24.67;94900.72;6127334;28;104084;-53
2022/03/09 11:14:35;;;;;;;28.27;25.77;;;;;;;23.60;24.46;94894.13;6132712;28;103007;-53
2022/03/09 11:17:36;;;;;;;25.93;23.80;;;;;;;23.58;24.43;94897.13;6132791;28;104128;-52
2022/03/09 11:20:39;;;;;;;26.17;24.07;;;;;;;23.59;24.40;94896.03;6133244;28;104439;-53
2022/03/09 11:23:41;;;;;;;26.63;24.43;;;;;;;23.59;24.76;94888.03;6127618;28;104267;-54
2022/03/09 11:26:48;;;;;;;26.07;23.67;;;;;;;23.57;24.78;94889.44;6131602;28;103482;-53
2022/03/09 11:29:57;;;;;;;24.90;23.00;;;;;;;23.56;24.44;94890.50;6132971;28;103401;-54
2022/03/09 11:33:00;;;;;;;24.93;22.73;;;;;;;23.58;24.44;94881.13;6126729;28;103148;-54
2022/03/09 11:36:03;;;;;;;23.77;21.80;;;;;;;23.60;24.66;94889.59;6132488;28;104010;-54
2022/03/09 11:39:05;;;;;;;23.83;21.83;;;;;;;23.58;24.52;94875.78;6132168;28;103331;-53
2022/03/09 11:42:22;;;;;;;23.83;21.93;;;;;;;23.57;24.88;94876.09;6132847;28;103308;-53
2022/03/09 11:45:30;;;;;;;23.23;21.23;;;;;;;23.53;24.60;94878.59;6110923;28;103330;-54
2022/03/09 11:48:53;;;;;;;23.50;21.40;;;;;;;23.53;24.63;94883.13;6133006;28;103196;-54
2022/03/09 11:52:06;;;;;;;24.93;22.70;;;;;;;23.51;24.92;94874.63;6136389;28;104234;-54
2022/03/09 11:55:18;;;;;;;23.10;21.10;;;;;;;23.50;24.45;94879.19;6130688;28;103306;-54
2022/03/09 11:58:20;;;;;;;22.70;20.80;;;;;;;23.44;24.83;94877.78;6136897;28;104036;-53
2022/03/09 12:01:22;;;;;;;22.40;20.70;;;;;;;23.45;24.49;94882.00;6136037;28;103063;-53
2022/03/09 12:04:42;;;;;;;21.27;19.57;;;;;;;23.45;24.44;94887.34;6135345;28;104072;-54
2022/03/09 12:07:46;;;;;;;22.00;20.20;;;;;;;23.46;24.22;94882.78;6131984;28;103116;-54
2022/03/09 12:10:55;;;;;;;21.37;19.47;;;;;;;23.50;24.67;94878.41;6135672;28;102710;-54
2022/03/09 12:13:57;;;;;;;19.83;18.23;;;;;;;23.54;24.43;94877.47;6136195;28;103037;-54
2022/03/09 12:16:59;;;;;;;19.90;18.20;;;;;;;23.54;24.60;94872.16;6130598;28;103339;-54
2022/03/09 12:20:27;;;;;;;20.00;18.40;;;;;;;23.55;24.19;94870.25;6135660;28;103094;-54
2022/03/09 12:23:29;;;;;;;20.03;18.40;;;;;;;23.54;24.51;94872.16;6135669;28;103082;-54
2022/03/09 12:26:45;;;;;;;19.90;18.20;;;;;;;23.55;24.44;94872.94;6136895;28;104013;-55
2022/03/09 12:29:47;;;;;;;19.13;17.57;;;;;;;23.57;24.54;94868.09;6113346;28;104205;-55
2022/03/09 12:32:50;;;;;;;18.37;16.83;;;;;;;23.55;24.38;94859.59;6135744;28;103072;-55
2022/03/09 12:35:53;;;;;;;17.87;16.47;;;;;;;23.56;24.33;94863.84;6117414;28;103271;-54
2022/03/09 12:39:15;;;;;;;18.10;16.67;;;;;;;23.54;24.33;94863.38;6131058;28;102848;-54
2022/03/09 12:42:18;;;;;;;17.87;16.47;;;;;;;23.53;24.49;94865.25;6137018;28;102751;-55
2022/03/09 12:45:20;;;;;;;18.43;17.03;;;;;;;23.51;24.28;94854.09;6136737;28;103085;-54
2022/03/09 12:48:23;;;;;;;17.83;16.33;;;;;;;23.50;24.10;94855.19;6135108;28;103860;-53
2022/03/09 12:51:25;;;;;;;17.63;16.03;;;;;;;23.52;24.38;94865.56;6112136;28;103531;-54
2022/03/09 12:54:54;;;;;;;18.80;17.30;;;;;;;23.50;24.19;94855.19;6134868;28;104332;-53
2022/03/09 12:57:58;;;;;;;17.90;16.43;;;;;;;23.48;24.31;94860.03;6136392;28;104229;-54
2022/03/09 13:01:04;;;;;;;16.90;15.50;;;;;;;23.47;24.05;94858.47;6130578;28;103551;-54
2022/03/09 13:04:07;;;;;;;17.03;15.70;;;;;;;23.45;24.50;94860.66;6135490;28;103264;-55
2022/03/09 13:07:14;;;;;;;16.30;15.03;;;;;;;23.45;23.96;94866.00;6134337;28;103278;-54
2022/03/09 13:10:16;;;;;;;16.50;15.20;;;;;;;23.44;23.98;94867.09;6134697;28;103997;-55
2022/03/09 13:13:18;;;;;;;16.07;14.77;;;;;;;23.43;23.96;94868.19;6129767;28;103371;-55
2022/03/09 13:16:22;;;;;;;15.50;14.30;;;;;;;23.42;24.24;94866.63;6134669;28;104023;-54
2022/03/09 13:19:24;;;;;;;16.20;14.90;;;;;;;23.40;24.34;94869.63;6134501;28;103159;-54
2022/03/09 13:22:26;;;;;;;15.73;14.53;;;;;;;23.40;24.17;94871.50;6134064;28;103341;-54
2022/03/09 13:25:31;;;;;;;15.83;14.60;;;;;;;23.40;24.51;94871.50;6129070;28;104070;-54
2022/03/09 13:28:36;;;;;;;15.47;14.23;;;;;;;23.38;24.59;94871.03;6135116;28;103416;-54
2022/03/09 13:31:47;;;;;;;15.10;14.00;;;;;;;23.37;24.13;94880.13;6134321;28;104283;-55
2022/03/09 13:34:55;;;;;;;15.40;14.20;;;;;;;23.38;24.44;94876.34;6128834;28;103095;-54
2022/03/09 13:38:03;;;;;;;15.23;14.07;;;;;;;23.37;23.89;94872.91;6132899;28;103000;-54
2022/03/09 13:41:07;;;;;;;14.47;13.37;;;;;;;23.36;24.50;94878.56;6134573;28;103086;-55
2022/03/09 13:44:29;;;;;;;14.30;13.13;;;;;;;23.35;24.48;94882.31;6134811;28;104359;-54
2022/03/09 13:47:43;;;;;;;13.83;12.73;;;;;;;23.37;23.90;94874.78;6128438;28;103468;-54
2022/03/09 13:50:59;;;;;;;13.60;12.50;;;;;;;23.38;24.08;94879.03;6134342;28;104220;-55
2022/03/09 13:54:05;;;;;;;13.33;12.23;;;;;;;23.35;24.00;94880.44;6133944;28;103169;-54
2022/03/09 13:57:07;;;;;;;13.40;12.30;;;;;;;23.34;23.82;94881.50;6128581;28;103022;-54